sensor_id;sensor_type;location;lat;lon;timestamp;P1;durP1;ratioP1;P2;durP2;ratioP2
19396;SDS011;9834;48.076;11.878;2024-03-06T04:01:25;1.67;;;1.43;;
19396;SDS011;9834;48.076;11.878;2024-03-06T04:04:06;1.73;;;1.20;;
19396;SDS011;9834;48.076;11.878;2024-03-06T04:06:37;5.93;;;1.50;;
19396;SDS011;9834;48.076;11.878;2024-03-06T04:09:08;2.00;;;1.10;;
19396;SDS011;9834;48.076;11.878;2024-03-06T04:11:40;1.93;;;1.73;;
19396;SDS011;9834;48.076;11.878;2024-03-06T04:14:08;1.20;;;0.90;;
19396;SDS011;9834;48.076;11.878;2024-03-06T04:16:53;3.93;;;1.30;;
19396;SDS011;9834;48.076;11.878;2024-03-06T04:19:22;1.10;;;0.90;;
19396;SDS011;9834;48.076;11.878;2024-03-06T04:22:06;1.40;;;1.13;;
19396;SDS011;9834;48.076;11.878;2024-03-06T04:24:41;1.70;;;1.00;;
19396;SDS011;9834;48.076;11.878;2024-03-06T04:27:09;1.20;;;1.07;;
19396;SDS011;9834;48.076;11.878;2024-03-06T04:29:44;1.10;;;1.00;;
19396;SDS011;9834;48.076;11.878;2024-03-06T04:32:13;2.13;;;1.10;;
19396;SDS011;9834;48.076;11.878;2024-03-06T04:34:43;1.47;;;1.17;;
19396;SDS011;9834;48.076;11.878;2024-03-06T04:37:12;1.83;;;1.40;;
19396;SDS011;9834;48.076;11.878;2024-03-06T04:39:39;1.53;;;1.33;;
19396;SDS011;9834;48.076;11.878;2024-03-06T04:42:08;0.90;;;0.90;;
19396;SDS011;9834;48.076;11.878;2024-03-06T04:44:38;2.53;;;1.30;;
19396;SDS011;9834;48.076;11.878;2024-03-06T04:47:07;1.27;;;1.00;;
19396;SDS011;9834;48.076;11.878;2024-03-06T04:49:36;1.97;;;1.33;;
19396;SDS011;9834;48.076;11.878;2024-03-06T04:52:07;0.97;;;0.80;;
19396;SDS011;9834;48.076;11.878;2024-03-06T04:54:38;1.27;;;0.93;;
19396;SDS011;9834;48.076;11.878;2024-03-06T04:57:09;0.87;;;0.73;;
19396;SDS011;9834;48.076;11.878;2024-03-06T04:59:36;0.90;;;0.87;;
19396;SDS011;9834;48.076;11.878;2024-03-06T05:02:03;1.53;;;1.07;;
19396;SDS011;9834;48.076;11.878;2024-03-06T05:04:40;1.57;;;1.10;;
19396;SDS011;9834;48.076;11.878;2024-03-06T05:07:08;0.63;;;0.60;;
19396;SDS011;9834;48.076;11.878;2024-03-06T05:09:36;3.90;;;0.90;;
19396;SDS011;9834;48.076;11.878;2024-03-06T05:12:12;0.73;;;0.73;;
19396;SDS011;9834;48.076;11.878;2024-03-06T05:15:09;2.13;;;0.93;;
19396;SDS011;9834;48.076;11.878;2024-03-06T05:17:45;1.17;;;0.97;;
19396;SDS011;9834;48.076;11.878;2024-03-06T05:20:27;0.83;;;0.80;;
19396;SDS011;9834;48.076;11.878;2024-03-06T05:22:56;1.03;;;0.83;;
19396;SDS011;9834;48.076;11.878;2024-03-06T05:25:24;1.23;;;1.10;;
19396;SDS011;9834;48.076;11.878;2024-03-06T05:27:57;1.00;;;0.90;;
19396;SDS011;9834;48.076;11.878;2024-03-06T05:30:25;0.80;;;0.80;;
19396;SDS011;9834;48.076;11.878;2024-03-06T05:32:57;1.10;;;0.70;;
19396;SDS011;9834;48.076;11.878;2024-03-06T05:35:26;0.80;;;0.80;;
19396;SDS011;9834;48.076;11.878;2024-03-06T05:37:54;1.10;;;0.97;;
19396;SDS011;9834;48.076;11.878;2024-03-06T05:40:31;0.47;;;0.47;;
19396;SDS011;9834;48.076;11.878;2024-03-06T05:43:09;1.20;;;0.70;;
19396;SDS011;9834;48.076;11.878;2024-03-06T05:45:37;0.90;;;0.77;;
19396;SDS011;9834;48.076;11.878;2024-03-06T05:48:07;0.87;;;0.83;;
19396;SDS011;9834;48.076;11.878;2024-03-06T05:50:36;0.90;;;0.67;;
19396;SDS011;9834;48.076;11.878;2024-03-06T05:53:08;0.73;;;0.70;;
19396;SDS011;9834;48.076;11.878;2024-03-06T05:55:36;4.43;;;0.87;;
19396;SDS011;9834;48.076;11.878;2024-03-06T05:58:04;0.77;;;0.77;;
19396;SDS011;9834;48.076;11.878;2024-03-06T06:00:34;0.93;;;0.83;;
19396;SDS011;9834;48.076;11.878;2024-03-06T06:03:01;1.57;;;0.90;;
19396;SDS011;9834;48.076;11.878;2024-03-06T06:05:29;1.10;;;1.07;;
19396;SDS011;9834;48.076;11.878;2024-03-06T06:08:08;0.97;;;0.80;;
19396;SDS011;9834;48.076;11.878;2024-03-06T06:10:36;2.57;;;0.80;;
19396;SDS011;9834;48.076;11.878;2024-03-06T06:13:03;2.20;;;0.67;;
19396;SDS011;9834;48.076;11.878;2024-03-06T06:15:37;1.07;;;0.77;;
19396;SDS011;9834;48.076;11.878;2024-03-06T06:18:08;1.03;;;0.97;;
19396;SDS011;9834;48.076;11.878;2024-03-06T06:20:40;2.57;;;0.93;;
19396;SDS011;9834;48.076;11.878;2024-03-06T06:23:09;1.03;;;0.93;;
19396;SDS011;9834;48.076;11.878;2024-03-06T06:25:37;1.60;;;0.97;;
19396;SDS011;9834;48.076;11.878;2024-03-06T06:28:08;0.97;;;0.60;;
19396;SDS011;9834;48.076;11.878;2024-03-06T06:30:35;1.27;;;1.17;;
19396;SDS011;9834;48.076;11.878;2024-03-06T06:33:03;0.83;;;0.83;;
19396;SDS011;9834;48.076;11.878;2024-03-06T06:35:31;3.97;;;1.60;;
19396;SDS011;9834;48.076;11.878;2024-03-06T06:38:01;1.40;;;1.17;;
19396;SDS011;9834;48.076;11.878;2024-03-06T06:40:31;1.47;;;1.00;;
19396;SDS011;9834;48.076;11.878;2024-03-06T06:43:01;1.00;;;1.00;;
19396;SDS011;9834;48.076;11.878;2024-03-06T06:45:34;1.60;;;1.10;;
19396;SDS011;9834;48.076;11.878;2024-03-06T06:48:05;2.10;;;1.33;;
19396;SDS011;9834;48.076;11.878;2024-03-06T06:50:43;1.23;;;1.00;;
19396;SDS011;9834;48.076;11.878;2024-03-06T06:53:13;1.40;;;1.17;;
19396;SDS011;9834;48.076;11.878;2024-03-06T06:55:45;1.00;;;1.00;;
19396;SDS011;9834;48.076;11.878;2024-03-06T06:58:14;1.53;;;1.43;;
19396;SDS011;9834;48.076;11.878;2024-03-06T07:00:42;1.50;;;1.30;;
19396;SDS011;9834;48.076;11.878;2024-03-06T07:03:11;1.37;;;1.17;;
19396;SDS011;9834;48.076;11.878;2024-03-06T07:05:41;1.40;;;1.30;;
19396;SDS011;9834;48.076;11.878;2024-03-06T07:08:08;1.37;;;1.00;;
19396;SDS011;9834;48.076;11.878;2024-03-06T07:10:39;0.87;;;0.80;;
19396;SDS011;9834;48.076;11.878;2024-03-06T07:13:08;1.23;;;1.00;;
19396;SDS011;9834;48.076;11.878;2024-03-06T07:15:38;1.30;;;1.23;;
19396;SDS011;9834;48.076;11.878;2024-03-06T07:18:08;2.27;;;1.87;;
19396;SDS011;9834;48.076;11.878;2024-03-06T07:20:39;2.00;;;1.83;;
19396;SDS011;9834;48.076;11.878;2024-03-06T07:23:09;1.23;;;1.13;;
19396;SDS011;9834;48.076;11.878;2024-03-06T07:25:38;1.50;;;1.17;;
19396;SDS011;9834;48.076;11.878;2024-03-06T07:28:05;1.90;;;1.43;;
19396;SDS011;9834;48.076;11.878;2024-03-06T07:30:36;2.17;;;1.43;;
19396;SDS011;9834;48.076;11.878;2024-03-06T07:33:03;1.53;;;1.30;;
19396;SDS011;9834;48.076;11.878;2024-03-06T07:35:32;1.33;;;1.00;;
19396;SDS011;9834;48.076;11.878;2024-03-06T07:38:01;3.17;;;1.30;;
19396;SDS011;9834;48.076;11.878;2024-03-06T07:40:32;1.70;;;1.27;;
19396;SDS011;9834;48.076;11.878;2024-03-06T07:43:00;1.07;;;0.97;;
19396;SDS011;9834;48.076;11.878;2024-03-06T07:45:30;2.00;;;1.40;;
19396;SDS011;9834;48.076;11.878;2024-03-06T07:47:57;1.27;;;1.17;;
19396;SDS011;9834;48.076;11.878;2024-03-06T07:50:25;1.57;;;1.37;;
19396;SDS011;9834;48.076;11.878;2024-03-06T07:52:52;1.20;;;1.10;;
19396;SDS011;9834;48.076;11.878;2024-03-06T07:55:21;1.53;;;1.20;;
19396;SDS011;9834;48.076;11.878;2024-03-06T07:57:48;1.73;;;1.40;;
19396;SDS011;9834;48.076;11.878;2024-03-06T08:00:16;1.03;;;0.90;;
19396;SDS011;9834;48.076;11.878;2024-03-06T08:02:46;3.07;;;1.70;;
19396;SDS011;9834;48.076;11.878;2024-03-06T08:05:15;1.00;;;0.93;;
19396;SDS011;9834;48.076;11.878;2024-03-06T08:07:43;1.30;;;1.20;;
19396;SDS011;9834;48.076;11.878;2024-03-06T08:10:18;2.00;;;1.00;;
19396;SDS011;9834;48.076;11.878;2024-03-06T08:12:47;2.60;;;1.30;;
19396;SDS011;9834;48.076;11.878;2024-03-06T08:15:20;2.23;;;1.27;;
19396;SDS011;9834;48.076;11.878;2024-03-06T08:17:51;1.63;;;0.80;;
19396;SDS011;9834;48.076;11.878;2024-03-06T08:20:21;1.27;;;1.00;;
19396;SDS011;9834;48.076;11.878;2024-03-06T08:22:49;2.10;;;0.80;;
19396;SDS011;9834;48.076;11.878;2024-03-06T08:25:19;2.20;;;1.03;;
19396;SDS011;9834;48.076;11.878;2024-03-06T08:27:46;1.13;;;1.03;;
19396;SDS011;9834;48.076;11.878;2024-03-06T08:30:20;1.27;;;0.97;;
19396;SDS011;9834;48.076;11.878;2024-03-06T08:32:58;1.00;;;0.90;;
19396;SDS011;9834;48.076;11.878;2024-03-06T08:35:31;1.07;;;0.70;;
19396;SDS011;9834;48.076;11.878;2024-03-06T08:37:59;1.00;;;0.90;;
19396;SDS011;9834;48.076;11.878;2024-03-06T08:40:30;1.10;;;1.00;;
19396;SDS011;9834;48.076;11.878;2024-03-06T08:43:00;1.40;;;1.00;;
19396;SDS011;9834;48.076;11.878;2024-03-06T08:45:36;1.37;;;1.20;;
19396;SDS011;9834;48.076;11.878;2024-03-06T08:48:13;1.10;;;1.00;;
19396;SDS011;9834;48.076;11.878;2024-03-06T08:50:48;1.97;;;0.90;;
19396;SDS011;9834;48.076;11.878;2024-03-06T08:53:19;0.70;;;0.70;;
19396;SDS011;9834;48.076;11.878;2024-03-06T08:55:50;0.80;;;0.80;;
19396;SDS011;9834;48.076;11.878;2024-03-06T08:58:17;1.20;;;0.97;;
19396;SDS011;9834;48.076;11.878;2024-03-06T09:00:46;0.87;;;0.80;;
19396;SDS011;9834;48.076;11.878;2024-03-06T09:03:15;0.83;;;0.73;;
19396;SDS011;9834;48.076;11.878;2024-03-06T09:05:42;1.33;;;1.10;;
19396;SDS011;9834;48.076;11.878;2024-03-06T09:08:09;1.27;;;0.97;;
19396;SDS011;9834;48.076;11.878;2024-03-06T09:10:38;0.63;;;0.60;;
19396;SDS011;9834;48.076;11.878;2024-03-06T09:13:05;1.37;;;1.20;;
19396;SDS011;9834;48.076;11.878;2024-03-06T09:15:33;0.80;;;0.80;;
19396;SDS011;9834;48.076;11.878;2024-03-06T09:18:01;0.73;;;0.73;;
19396;SDS011;9834;48.076;11.878;2024-03-06T09:20:32;0.90;;;0.80;;
19396;SDS011;9834;48.076;11.878;2024-03-06T09:23:01;1.20;;;1.00;;
19396;SDS011;9834;48.076;11.878;2024-03-06T09:25:30;1.07;;;0.97;;
19396;SDS011;9834;48.076;11.878;2024-03-06T09:28:06;0.80;;;0.80;;
19396;SDS011;9834;48.076;11.878;2024-03-06T09:30:34;0.77;;;0.77;;
19396;SDS011;9834;48.076;11.878;2024-03-06T09:33:06;1.00;;;0.97;;
19396;SDS011;9834;48.076;11.878;2024-03-06T09:35:35;1.80;;;1.13;;
19396;SDS011;9834;48.076;11.878;2024-03-06T09:38:02;0.93;;;0.90;;
19396;SDS011;9834;48.076;11.878;2024-03-06T09:40:30;0.90;;;0.90;;
19396;SDS011;9834;48.076;11.878;2024-03-06T09:43:00;1.10;;;1.00;;
19396;SDS011;9834;48.076;11.878;2024-03-06T09:45:30;0.97;;;0.83;;
19396;SDS011;9834;48.076;11.878;2024-03-06T09:47:57;0.93;;;0.70;;
19396;SDS011;9834;48.076;11.878;2024-03-06T09:50:38;2.27;;;2.03;;
19396;SDS011;9834;48.076;11.878;2024-03-06T09:53:11;1.27;;;1.10;;
19396;SDS011;9834;48.076;11.878;2024-03-06T09:55:44;0.87;;;0.87;;
19396;SDS011;9834;48.076;11.878;2024-03-06T09:58:13;1.07;;;0.97;;
19396;SDS011;9834;48.076;11.878;2024-03-06T10:00:40;0.97;;;0.93;;
19396;SDS011;9834;48.076;11.878;2024-03-06T10:03:08;1.50;;;0.83;;
19396;SDS011;9834;48.076;11.878;2024-03-06T10:05:36;0.90;;;0.90;;
19396;SDS011;9834;48.076;11.878;2024-03-06T10:08:05;1.70;;;1.07;;
19396;SDS011;9834;48.076;11.878;2024-03-06T10:10:33;1.63;;;0.90;;
19396;SDS011;9834;48.076;11.878;2024-03-06T10:13:03;0.83;;;0.83;;
19396;SDS011;9834;48.076;11.878;2024-03-06T10:15:32;1.00;;;0.97;;
19396;SDS011;9834;48.076;11.878;2024-03-06T10:18:14;0.90;;;0.90;;
19396;SDS011;9834;48.076;11.878;2024-03-06T10:20:45;1.33;;;1.00;;
19396;SDS011;9834;48.076;11.878;2024-03-06T10:23:12;1.13;;;1.10;;
19396;SDS011;9834;48.076;11.878;2024-03-06T10:25:45;1.33;;;1.20;;
19396;SDS011;9834;48.076;11.878;2024-03-06T10:28:17;4.20;;;0.87;;
19396;SDS011;9834;48.076;11.878;2024-03-06T10:31:02;0.73;;;0.70;;
19396;SDS011;9834;48.076;11.878;2024-03-06T10:33:32;1.73;;;1.03;;
19396;SDS011;9834;48.076;11.878;2024-03-06T10:36:05;1.30;;;1.20;;
19396;SDS011;9834;48.076;11.878;2024-03-06T10:38:36;1.07;;;1.07;;
19396;SDS011;9834;48.076;11.878;2024-03-06T10:41:11;1.00;;;1.00;;
19396;SDS011;9834;48.076;11.878;2024-03-06T10:43:42;0.83;;;0.83;;
19396;SDS011;9834;48.076;11.878;2024-03-06T10:46:15;1.67;;;0.80;;
19396;SDS011;9834;48.076;11.878;2024-03-06T10:48:51;1.27;;;1.23;;
19396;SDS011;9834;48.076;11.878;2024-03-06T10:51:31;1.13;;;0.87;;
19396;SDS011;9834;48.076;11.878;2024-03-06T10:54:00;0.97;;;0.97;;
19396;SDS011;9834;48.076;11.878;2024-03-06T10:56:30;1.37;;;1.27;;
19396;SDS011;9834;48.076;11.878;2024-03-06T10:59:01;1.20;;;1.00;;
19396;SDS011;9834;48.076;11.878;2024-03-06T11:01:29;2.40;;;1.30;;
19396;SDS011;9834;48.076;11.878;2024-03-06T11:04:05;1.83;;;1.30;;
19396;SDS011;9834;48.076;11.878;2024-03-06T11:06:34;1.83;;;1.53;;
19396;SDS011;9834;48.076;11.878;2024-03-06T11:09:01;2.07;;;1.50;;
19396;SDS011;9834;48.076;11.878;2024-03-06T11:11:32;1.27;;;1.13;;
19396;SDS011;9834;48.076;11.878;2024-03-06T11:14:04;2.80;;;1.20;;
19396;SDS011;9834;48.076;11.878;2024-03-06T11:16:33;3.23;;;1.47;;
19396;SDS011;9834;48.076;11.878;2024-03-06T11:19:31;1.67;;;1.43;;
19396;SDS011;9834;48.076;11.878;2024-03-06T11:22:02;1.30;;;1.10;;
19396;SDS011;9834;48.076;11.878;2024-03-06T11:24:34;2.10;;;1.37;;
19396;SDS011;9834;48.076;11.878;2024-03-06T11:27:05;1.40;;;1.30;;
19396;SDS011;9834;48.076;11.878;2024-03-06T11:32:36;3.60;;;1.80;;
19396;SDS011;9834;48.076;11.878;2024-03-06T11:35:04;3.10;;;2.00;;
19396;SDS011;9834;48.076;11.878;2024-03-06T11:37:45;2.43;;;1.70;;
19396;SDS011;9834;48.076;11.878;2024-03-06T11:40:24;2.50;;;1.83;;
19396;SDS011;9834;48.076;11.878;2024-03-06T11:42:52;4.10;;;1.53;;
19396;SDS011;9834;48.076;11.878;2024-03-06T11:45:19;2.57;;;2.23;;
19396;SDS011;9834;48.076;11.878;2024-03-06T11:47:57;4.47;;;1.93;;
19396;SDS011;9834;48.076;11.878;2024-03-06T11:50:28;3.07;;;2.17;;
19396;SDS011;9834;48.076;11.878;2024-03-06T11:52:58;4.63;;;1.23;;
19396;SDS011;9834;48.076;11.878;2024-03-06T11:55:26;2.13;;;1.37;;
19396;SDS011;9834;48.076;11.878;2024-03-06T11:57:56;3.00;;;1.90;;
19396;SDS011;9834;48.076;11.878;2024-03-06T12:00:29;2.33;;;1.90;;
19396;SDS011;9834;48.076;11.878;2024-03-06T12:02:57;1.40;;;1.20;;
19396;SDS011;9834;48.076;11.878;2024-03-06T12:05:30;1.70;;;1.27;;
19396;SDS011;9834;48.076;11.878;2024-03-06T12:08:08;2.07;;;1.40;;
19396;SDS011;9834;48.076;11.878;2024-03-06T12:10:41;1.50;;;1.33;;
19396;SDS011;9834;48.076;11.878;2024-03-06T12:13:12;2.57;;;1.33;;
19396;SDS011;9834;48.076;11.878;2024-03-06T12:15:44;2.30;;;1.87;;
19396;SDS011;9834;48.076;11.878;2024-03-06T12:18:16;2.63;;;1.87;;
19396;SDS011;9834;48.076;11.878;2024-03-06T12:20:54;3.10;;;2.13;;
19396;SDS011;9834;48.076;11.878;2024-03-06T12:23:26;3.20;;;2.00;;
19396;SDS011;9834;48.076;11.878;2024-03-06T12:26:03;2.40;;;2.20;;
19396;SDS011;9834;48.076;11.878;2024-03-06T12:28:34;3.17;;;2.47;;
19396;SDS011;9834;48.076;11.878;2024-03-06T12:31:05;2.70;;;2.40;;
19396;SDS011;9834;48.076;11.878;2024-03-06T12:33:35;3.63;;;2.50;;
19396;SDS011;9834;48.076;11.878;2024-03-06T12:36:08;2.73;;;1.90;;
19396;SDS011;9834;48.076;11.878;2024-03-06T12:38:41;2.83;;;2.53;;
19396;SDS011;9834;48.076;11.878;2024-03-06T12:41:11;2.43;;;2.20;;
19396;SDS011;9834;48.076;11.878;2024-03-06T12:43:38;3.73;;;2.60;;
19396;SDS011;9834;48.076;11.878;2024-03-06T12:46:06;3.77;;;2.73;;
19396;SDS011;9834;48.076;11.878;2024-03-06T12:48:34;5.47;;;2.90;;
19396;SDS011;9834;48.076;11.878;2024-03-06T12:51:04;4.20;;;2.73;;
19396;SDS011;9834;48.076;11.878;2024-03-06T12:53:38;5.77;;;3.17;;
19396;SDS011;9834;48.076;11.878;2024-03-06T12:56:08;3.30;;;3.00;;
19396;SDS011;9834;48.076;11.878;2024-03-06T12:58:36;4.47;;;3.57;;
19396;SDS011;9834;48.076;11.878;2024-03-06T13:01:06;6.43;;;3.90;;
19396;SDS011;9834;48.076;11.878;2024-03-06T13:03:33;5.47;;;3.53;;
19396;SDS011;9834;48.076;11.878;2024-03-06T13:06:00;4.77;;;3.40;;
19396;SDS011;9834;48.076;11.878;2024-03-06T13:08:28;7.47;;;5.07;;
19396;SDS011;9834;48.076;11.878;2024-03-06T13:10:58;8.13;;;4.97;;
19396;SDS011;9834;48.076;11.878;2024-03-06T13:13:27;8.87;;;5.33;;
19396;SDS011;9834;48.076;11.878;2024-03-06T13:15:58;9.67;;;6.20;;
19396;SDS011;9834;48.076;11.878;2024-03-06T13:18:25;11.97;;;6.47;;
19396;SDS011;9834;48.076;11.878;2024-03-06T13:21:12;8.80;;;5.03;;
19396;SDS011;9834;48.076;11.878;2024-03-06T13:23:39;8.40;;;5.23;;
19396;SDS011;9834;48.076;11.878;2024-03-06T13:26:06;7.93;;;5.17;;
19396;SDS011;9834;48.076;11.878;2024-03-06T13:28:41;8.70;;;5.93;;
19396;SDS011;9834;48.076;11.878;2024-03-06T13:31:18;8.43;;;4.93;;
19396;SDS011;9834;48.076;11.878;2024-03-06T13:33:45;9.73;;;5.83;;
19396;SDS011;9834;48.076;11.878;2024-03-06T13:36:14;10.53;;;5.70;;
19396;SDS011;9834;48.076;11.878;2024-03-06T13:38:45;14.37;;;6.53;;
19396;SDS011;9834;48.076;11.878;2024-03-06T13:41:15;8.07;;;5.33;;
19396;SDS011;9834;48.076;11.878;2024-03-06T13:43:49;8.10;;;5.63;;
19396;SDS011;9834;48.076;11.878;2024-03-06T13:46:19;11.00;;;5.70;;
19396;SDS011;9834;48.076;11.878;2024-03-06T13:48:49;8.47;;;4.97;;
19396;SDS011;9834;48.076;11.878;2024-03-06T13:51:22;8.67;;;4.60;;
19396;SDS011;9834;48.076;11.878;2024-03-06T13:53:49;4.97;;;4.07;;
19396;SDS011;9834;48.076;11.878;2024-03-06T13:56:16;5.97;;;4.10;;
19396;SDS011;9834;48.076;11.878;2024-03-06T13:58:44;2.80;;;1.53;;
19396;SDS011;9834;48.076;11.878;2024-03-06T14:01:13;1.30;;;1.20;;
19396;SDS011;9834;48.076;11.878;2024-03-06T14:03:43;2.10;;;1.30;;
19396;SDS011;9834;48.076;11.878;2024-03-06T14:06:13;1.67;;;1.33;;
19396;SDS011;9834;48.076;11.878;2024-03-06T14:08:43;0.90;;;0.90;;
19396;SDS011;9834;48.076;11.878;2024-03-06T14:11:15;1.80;;;0.97;;
19396;SDS011;9834;48.076;11.878;2024-03-06T14:13:44;3.03;;;1.20;;
19396;SDS011;9834;48.076;11.878;2024-03-06T14:16:13;0.90;;;0.87;;
19396;SDS011;9834;48.076;11.878;2024-03-06T14:18:41;1.30;;;1.20;;
19396;SDS011;9834;48.076;11.878;2024-03-06T14:21:12;1.60;;;1.40;;
19396;SDS011;9834;48.076;11.878;2024-03-06T14:23:39;5.20;;;1.87;;
19396;SDS011;9834;48.076;11.878;2024-03-06T14:26:10;16.83;;;1.80;;
19396;SDS011;9834;48.076;11.878;2024-03-06T14:28:37;2.40;;;1.67;;
19396;SDS011;9834;48.076;11.878;2024-03-06T14:31:07;1.53;;;1.43;;
19396;SDS011;9834;48.076;11.878;2024-03-06T14:36:22;2.97;;;1.93;;
19396;SDS011;9834;48.076;11.878;2024-03-06T14:38:50;1.47;;;1.30;;
19396;SDS011;9834;48.076;11.878;2024-03-06T14:41:18;3.67;;;1.70;;
19396;SDS011;9834;48.076;11.878;2024-03-06T14:43:48;2.87;;;1.60;;
19396;SDS011;9834;48.076;11.878;2024-03-06T14:46:19;2.80;;;1.70;;
19396;SDS011;9834;48.076;11.878;2024-03-06T14:48:46;2.50;;;2.00;;
19396;SDS011;9834;48.076;11.878;2024-03-06T14:51:15;2.30;;;1.70;;
19396;SDS011;9834;48.076;11.878;2024-03-06T14:53:42;1.97;;;1.80;;
19396;SDS011;9834;48.076;11.878;2024-03-06T14:56:10;3.30;;;1.87;;
19396;SDS011;9834;48.076;11.878;2024-03-06T14:58:37;1.73;;;1.60;;
19396;SDS011;9834;48.076;11.878;2024-03-06T15:01:08;1.50;;;1.37;;
19396;SDS011;9834;48.076;11.878;2024-03-06T15:03:36;3.60;;;1.57;;
19396;SDS011;9834;48.076;11.878;2024-03-06T15:06:11;2.00;;;1.40;;
19396;SDS011;9834;48.076;11.878;2024-03-06T15:08:46;1.30;;;1.20;;
19396;SDS011;9834;48.076;11.878;2024-03-06T15:11:14;3.93;;;1.60;;
19396;SDS011;9834;48.076;11.878;2024-03-06T15:13:41;1.90;;;1.30;;
19396;SDS011;9834;48.076;11.878;2024-03-06T15:16:13;2.03;;;1.47;;
19396;SDS011;9834;48.076;11.878;2024-03-06T15:18:50;1.97;;;1.27;;
19396;SDS011;9834;48.076;11.878;2024-03-06T15:21:22;2.40;;;1.67;;
19396;SDS011;9834;48.076;11.878;2024-03-06T15:23:49;1.57;;;1.30;;
19396;SDS011;9834;48.076;11.878;2024-03-06T15:26:20;1.20;;;1.10;;
19396;SDS011;9834;48.076;11.878;2024-03-06T15:28:50;2.00;;;1.60;;
19396;SDS011;9834;48.076;11.878;2024-03-06T15:31:20;1.23;;;1.13;;
19396;SDS011;9834;48.076;11.878;2024-03-06T15:33:53;3.37;;;1.53;;
19396;SDS011;9834;48.076;11.878;2024-03-06T15:36:22;2.37;;;1.70;;
19396;SDS011;9834;48.076;11.878;2024-03-06T15:38:49;1.33;;;1.23;;
19396;SDS011;9834;48.076;11.878;2024-03-06T15:41:20;2.03;;;1.57;;
19396;SDS011;9834;48.076;11.878;2024-03-06T15:43:50;1.77;;;1.30;;
19396;SDS011;9834;48.076;11.878;2024-03-06T15:46:20;1.60;;;1.50;;
19396;SDS011;9834;48.076;11.878;2024-03-06T15:48:54;1.83;;;1.53;;
19396;SDS011;9834;48.076;11.878;2024-03-06T15:51:22;1.67;;;1.53;;
19396;SDS011;9834;48.076;11.878;2024-03-06T15:53:52;3.27;;;1.50;;
19396;SDS011;9834;48.076;11.878;2024-03-06T15:56:21;1.60;;;1.43;;
19396;SDS011;9834;48.076;11.878;2024-03-06T15:58:51;2.90;;;1.90;;
19396;SDS011;9834;48.076;11.878;2024-03-06T16:01:22;1.20;;;1.10;;
19396;SDS011;9834;48.076;11.878;2024-03-06T16:03:55;4.73;;;2.47;;
19396;SDS011;9834;48.076;11.878;2024-03-06T16:06:28;7.23;;;2.10;;
19396;SDS011;9834;48.076;11.878;2024-03-06T16:08:56;3.67;;;2.13;;
19396;SDS011;9834;48.076;11.878;2024-03-06T16:11:29;1.93;;;1.47;;
19396;SDS011;9834;48.076;11.878;2024-03-06T16:13:56;3.90;;;1.53;;
19396;SDS011;9834;48.076;11.878;2024-03-06T16:16:28;2.33;;;1.30;;
19396;SDS011;9834;48.076;11.878;2024-03-06T16:18:58;3.10;;;1.80;;
19396;SDS011;9834;48.076;11.878;2024-03-06T16:21:28;4.53;;;2.07;;
19396;SDS011;9834;48.076;11.878;2024-03-06T16:23:58;6.23;;;2.07;;
19396;SDS011;9834;48.076;11.878;2024-03-06T16:26:38;1.93;;;1.20;;
19396;SDS011;9834;48.076;11.878;2024-03-06T16:29:08;2.13;;;1.50;;
19396;SDS011;9834;48.076;11.878;2024-03-06T16:31:38;2.30;;;1.90;;
19396;SDS011;9834;48.076;11.878;2024-03-06T16:34:11;3.13;;;2.83;;
19396;SDS011;9834;48.076;11.878;2024-03-06T16:36:42;2.57;;;1.87;;
19396;SDS011;9834;48.076;11.878;2024-03-06T16:39:09;3.90;;;1.70;;
19396;SDS011;9834;48.076;11.878;2024-03-06T16:41:40;2.63;;;1.97;;
19396;SDS011;9834;48.076;11.878;2024-03-06T16:44:14;3.27;;;1.80;;
19396;SDS011;9834;48.076;11.878;2024-03-06T16:46:55;2.93;;;1.90;;
19396;SDS011;9834;48.076;11.878;2024-03-06T16:49:24;4.30;;;1.93;;
19396;SDS011;9834;48.076;11.878;2024-03-06T16:51:56;2.43;;;2.10;;
19396;SDS011;9834;48.076;11.878;2024-03-06T16:54:24;2.83;;;1.73;;
19396;SDS011;9834;48.076;11.878;2024-03-06T16:56:55;5.80;;;2.10;;
19396;SDS011;9834;48.076;11.878;2024-03-06T16:59:23;2.03;;;1.60;;
19396;SDS011;9834;48.076;11.878;2024-03-06T17:01:51;2.60;;;2.07;;
19396;SDS011;9834;48.076;11.878;2024-03-06T17:04:25;2.70;;;1.83;;
19396;SDS011;9834;48.076;11.878;2024-03-06T17:06:53;1.77;;;1.67;;
19396;SDS011;9834;48.076;11.878;2024-03-06T17:09:22;2.70;;;1.73;;
19396;SDS011;9834;48.076;11.878;2024-03-06T17:11:51;3.60;;;1.77;;
19396;SDS011;9834;48.076;11.878;2024-03-06T17:14:21;3.33;;;1.60;;
19396;SDS011;9834;48.076;11.878;2024-03-06T17:16:49;2.73;;;2.50;;
19396;SDS011;9834;48.076;11.878;2024-03-06T17:19:16;2.33;;;2.13;;
19396;SDS011;9834;48.076;11.878;2024-03-06T17:21:45;2.60;;;1.80;;
19396;SDS011;9834;48.076;11.878;2024-03-06T17:24:17;2.43;;;2.07;;
19396;SDS011;9834;48.076;11.878;2024-03-06T17:26:58;2.90;;;2.47;;
19396;SDS011;9834;48.076;11.878;2024-03-06T17:29:30;2.47;;;1.83;;
19396;SDS011;9834;48.076;11.878;2024-03-06T17:32:03;3.63;;;2.10;;
19396;SDS011;9834;48.076;11.878;2024-03-06T17:34:31;2.00;;;1.80;;
19396;SDS011;9834;48.076;11.878;2024-03-06T17:37:01;2.77;;;1.87;;
19396;SDS011;9834;48.076;11.878;2024-03-06T17:39:36;2.27;;;2.07;;
19396;SDS011;9834;48.076;11.878;2024-03-06T17:42:04;3.30;;;2.50;;
19396;SDS011;9834;48.076;11.878;2024-03-06T17:44:34;6.63;;;3.57;;
19396;SDS011;9834;48.076;11.878;2024-03-06T17:47:15;4.97;;;2.97;;
19396;SDS011;9834;48.076;11.878;2024-03-06T17:49:45;4.07;;;3.33;;
19396;SDS011;9834;48.076;11.878;2024-03-06T17:52:14;4.40;;;2.80;;
19396;SDS011;9834;48.076;11.878;2024-03-06T17:54:44;3.30;;;3.00;;
19396;SDS011;9834;48.076;11.878;2024-03-06T17:57:18;2.37;;;2.07;;
19396;SDS011;9834;48.076;11.878;2024-03-06T17:59:50;4.60;;;2.70;;
19396;SDS011;9834;48.076;11.878;2024-03-06T18:02:17;2.17;;;2.00;;
19396;SDS011;9834;48.076;11.878;2024-03-06T18:04:44;3.23;;;2.60;;
19396;SDS011;9834;48.076;11.878;2024-03-06T18:07:15;4.50;;;3.13;;
19396;SDS011;9834;48.076;11.878;2024-03-06T18:09:43;5.47;;;2.87;;
19396;SDS011;9834;48.076;11.878;2024-03-06T18:12:17;3.53;;;3.03;;
19396;SDS011;9834;48.076;11.878;2024-03-06T18:17:39;4.10;;;3.00;;
19396;SDS011;9834;48.076;11.878;2024-03-06T18:20:10;3.80;;;3.23;;
19396;SDS011;9834;48.076;11.878;2024-03-06T18:22:49;3.83;;;3.20;;
19396;SDS011;9834;48.076;11.878;2024-03-06T18:25:18;8.70;;;3.63;;
19396;SDS011;9834;48.076;11.878;2024-03-06T18:27:46;3.93;;;3.53;;
19396;SDS011;9834;48.076;11.878;2024-03-06T18:30:13;4.77;;;3.90;;
19396;SDS011;9834;48.076;11.878;2024-03-06T18:32:41;6.13;;;4.27;;
19396;SDS011;9834;48.076;11.878;2024-03-06T18:35:15;5.07;;;4.27;;
19396;SDS011;9834;48.076;11.878;2024-03-06T18:37:45;5.50;;;4.50;;
19396;SDS011;9834;48.076;11.878;2024-03-06T18:40:13;5.43;;;4.50;;
19396;SDS011;9834;48.076;11.878;2024-03-06T18:42:47;4.77;;;4.03;;
19396;SDS011;9834;48.076;11.878;2024-03-06T18:45:21;4.97;;;3.93;;
19396;SDS011;9834;48.076;11.878;2024-03-06T18:47:52;7.57;;;4.10;;
19396;SDS011;9834;48.076;11.878;2024-03-06T18:50:20;5.93;;;4.43;;
19396;SDS011;9834;48.076;11.878;2024-03-06T18:52:49;5.53;;;3.90;;
19396;SDS011;9834;48.076;11.878;2024-03-06T18:55:19;6.83;;;5.67;;
19396;SDS011;9834;48.076;11.878;2024-03-06T18:57:51;6.10;;;5.30;;
19396;SDS011;9834;48.076;11.878;2024-03-06T19:00:20;5.57;;;3.87;;
19396;SDS011;9834;48.076;11.878;2024-03-06T19:02:49;6.97;;;5.27;;
19396;SDS011;9834;48.076;11.878;2024-03-06T19:05:18;7.73;;;6.00;;
19396;SDS011;9834;48.076;11.878;2024-03-06T19:07:53;6.53;;;5.00;;
19396;SDS011;9834;48.076;11.878;2024-03-06T19:10:21;6.83;;;5.20;;
19396;SDS011;9834;48.076;11.878;2024-03-06T19:12:57;6.23;;;5.00;;
19396;SDS011;9834;48.076;11.878;2024-03-06T19:15:29;5.53;;;4.60;;
19396;SDS011;9834;48.076;11.878;2024-03-06T19:17:57;8.13;;;5.57;;